createdAt,value
2022-12-22T00:00:40.335Z,43.70
2022-12-22T00:01:44.929Z,39.50
2022-12-22T00:02:40.565Z,58.00
2022-12-22T00:03:40.409Z,48.60
2022-12-22T00:04:40.296Z,86.70
2022-12-22T00:05:40.287Z,53.00
2022-12-22T00:06:40.267Z,60.50
2022-12-22T00:07:40.296Z,56.10
2022-12-22T00:08:40.246Z,59.90
2022-12-22T00:09:40.233Z,104.40
2022-12-22T00:10:40.230Z,45.70
2022-12-22T00:11:40.216Z,56.00
2022-12-22T00:12:40.246Z,47.30
2022-12-22T00:13:40.214Z,61.20
2022-12-22T00:14:40.194Z,38.60
2022-12-22T00:15:40.177Z,58.70
2022-12-22T00:16:40.218Z,83.00
2022-12-22T00:17:40.165Z,65.00
2022-12-22T00:18:40.148Z,60.30
2022-12-22T00:19:40.129Z,82.80
2022-12-22T00:20:40.120Z,50.90
2022-12-22T00:21:40.116Z,108.50
2022-12-22T00:22:40.111Z,75.30
2022-12-22T00:23:40.095Z,65.20
2022-12-22T00:24:40.065Z,86.00
2022-12-22T00:25:40.058Z,41.60
2022-12-22T00:26:40.042Z,41.10
2022-12-22T00:27:45.239Z,38.50
2022-12-22T00:28:40.032Z,46.20
2022-12-22T00:29:40.024Z,47.20
2022-12-22T00:30:40.056Z,65.10
2022-12-22T00:31:39.998Z,52.50
2022-12-22T00:32:40.007Z,71.80
2022-12-22T00:33:39.998Z,49.40
2022-12-22T00:34:39.982Z,64.30
2022-12-22T00:35:39.949Z,60.00
2022-12-22T00:36:39.948Z,74.90
2022-12-22T00:37:39.945Z,35.70
2022-12-22T00:38:39.913Z,49.40
2022-12-22T00:39:39.907Z,50.50
2022-12-22T00:40:39.895Z,44.00
2022-12-22T00:41:39.887Z,49.70
2022-12-22T00:42:39.896Z,50.20
2022-12-22T00:43:39.868Z,60.30
2022-12-22T00:44:39.845Z,42.00
2022-12-22T00:45:39.898Z,44.30
2022-12-22T00:46:39.837Z,38.60
2022-12-22T00:47:39.836Z,38.60
2022-12-22T00:48:39.806Z,35.90
2022-12-22T00:49:39.810Z,61.30
2022-12-22T00:50:39.785Z,39.40
2022-12-22T00:51:39.771Z,40.00
2022-12-22T00:52:39.781Z,43.80
2022-12-22T00:53:39.748Z,39.10
2022-12-22T00:54:39.746Z,40.20
2022-12-22T00:55:39.734Z,89.30
2022-12-22T00:56:39.725Z,38.10
2022-12-22T00:57:39.724Z,40.10
2022-12-22T00:58:39.726Z,50.50
2022-12-22T00:59:39.691Z,41.00
2022-12-22T01:00:39.686Z,42.60
2022-12-22T01:01:39.766Z,35.80
2022-12-22T01:02:39.892Z,40.90
2022-12-22T01:03:39.717Z,48.40
2022-12-22T01:04:39.637Z,48.20
2022-12-22T01:05:39.627Z,39.60
2022-12-22T01:06:39.598Z,46.40
2022-12-22T01:07:39.617Z,50.90
2022-12-22T01:08:39.591Z,48.60
2022-12-22T01:09:39.573Z,61.60
2022-12-22T01:10:39.554Z,54.70
2022-12-22T01:11:39.562Z,36.50
2022-12-22T01:12:39.599Z,44.50
2022-12-22T01:13:39.542Z,62.50
2022-12-22T01:14:39.518Z,37.90
2022-12-22T01:15:39.551Z,47.70
2022-12-22T01:16:39.501Z,71.90
2022-12-22T01:17:39.498Z,46.70
2022-12-22T01:18:39.472Z,60.10
2022-12-22T01:19:39.470Z,49.80
2022-12-22T01:20:39.455Z,109.00
2022-12-22T01:21:39.436Z,74.40
2022-12-22T01:22:39.461Z,38.30
2022-12-22T01:23:39.410Z,38.50
2022-12-22T01:24:39.403Z,37.40
2022-12-22T01:25:39.397Z,40.20
2022-12-22T01:26:39.387Z,43.40
2022-12-22T01:27:39.393Z,57.40
2022-12-22T01:28:39.370Z,48.10
2022-12-22T01:29:39.352Z,51.20
2022-12-22T01:30:39.403Z,59.70
2022-12-22T01:31:39.336Z,33.70
2022-12-22T01:32:39.337Z,41.90
2022-12-22T01:33:39.303Z,32.80
2022-12-22T01:34:39.315Z,38.90
2022-12-22T01:35:39.292Z,40.10
2022-12-22T01:36:39.277Z,42.40
2022-12-22T01:37:39.287Z,33.90
2022-12-22T01:38:39.247Z,52.20
2022-12-22T01:39:39.240Z,40.10
2022-12-22T01:40:39.243Z,43.50
2022-12-22T01:41:39.239Z,39.80
2022-12-22T01:42:39.223Z,35.20
2022-12-22T01:43:39.231Z,57.50
2022-12-22T01:44:39.188Z,38.50
2022-12-22T01:45:39.182Z,31.30
2022-12-22T01:46:39.270Z,39.50
2022-12-22T01:47:39.172Z,32.60
2022-12-22T01:48:39.149Z,44.40
2022-12-22T01:49:39.131Z,42.80
2022-12-22T01:50:39.119Z,64.90
2022-12-22T01:51:39.116Z,35.50
2022-12-22T01:52:39.103Z,54.70
2022-12-22T01:53:39.090Z,35.40
2022-12-22T01:54:39.067Z,49.90
2022-12-22T01:55:39.067Z,36.60
2022-12-22T01:56:39.061Z,49.20
2022-12-22T01:57:39.062Z,57.00
2022-12-22T01:58:39.032Z,45.00
2022-12-22T01:59:39.154Z,44.80
2022-12-22T02:00:39.019Z,41.00
2022-12-22T02:01:39.127Z,40.20
2022-12-22T02:02:39.118Z,56.30
2022-12-22T02:03:39.136Z,51.40
2022-12-22T02:04:38.971Z,38.90
2022-12-22T02:05:38.968Z,115.90
2022-12-22T02:06:38.937Z,32.80
2022-12-22T02:07:38.949Z,31.00
2022-12-22T02:08:38.954Z,36.30
2022-12-22T02:09:38.907Z,33.60
2022-12-22T02:10:38.895Z,42.80
2022-12-22T02:11:38.877Z,44.60
2022-12-22T02:12:38.874Z,55.50
2022-12-22T02:13:38.878Z,33.00
2022-12-22T02:14:38.865Z,59.50
2022-12-22T02:15:38.877Z,59.30
2022-12-22T02:16:38.836Z,107.40
2022-12-22T02:17:39.670Z,31.50
2022-12-22T02:18:38.818Z,37.20
2022-12-22T02:19:38.800Z,31.30
2022-12-22T02:20:38.788Z,32.60
2022-12-22T02:21:38.770Z,37.50
2022-12-22T02:22:38.763Z,105.60
2022-12-22T02:23:38.775Z,39.90
2022-12-22T02:24:38.740Z,26.50
2022-12-22T02:25:38.728Z,33.60
2022-12-22T02:26:38.716Z,86.10
2022-12-22T02:27:39.548Z,95.40
2022-12-22T02:28:38.710Z,59.80
2022-12-22T02:29:38.687Z,68.90
2022-12-22T02:30:38.692Z,106.70
2022-12-22T02:31:38.699Z,54.70
2022-12-22T02:32:38.654Z,31.70
2022-12-22T02:33:38.661Z,43.80
2022-12-22T02:34:38.630Z,37.70
2022-12-22T02:35:38.620Z,24.00
2022-12-22T02:36:38.615Z,26.90
2022-12-22T02:37:38.607Z,30.80
2022-12-22T02:38:38.591Z,31.40
2022-12-22T02:39:38.574Z,25.30
2022-12-22T02:40:41.596Z,28.00
2022-12-22T02:41:38.548Z,27.00
2022-12-22T02:42:38.543Z,31.30
2022-12-22T02:43:38.564Z,30.30
2022-12-22T02:44:38.526Z,26.30
2022-12-22T02:45:38.519Z,29.50
2022-12-22T02:46:38.497Z,28.50
2022-12-22T02:47:38.501Z,29.90
2022-12-22T02:48:38.487Z,30.80
2022-12-22T02:49:38.465Z,28.70
2022-12-22T02:50:38.448Z,25.80
2022-12-22T02:51:38.459Z,47.20
2022-12-22T02:52:38.419Z,28.50
2022-12-22T02:53:38.442Z,36.30
2022-12-22T02:54:38.402Z,34.50
2022-12-22T02:55:38.391Z,53.00
2022-12-22T02:56:38.404Z,61.70
2022-12-22T02:57:38.363Z,37.10
2022-12-22T02:58:38.388Z,76.20
2022-12-22T02:59:38.364Z,77.90
2022-12-22T03:00:38.340Z,68.90
2022-12-22T03:01:38.596Z,99.00
2022-12-22T03:02:38.517Z,56.40
2022-12-22T03:03:38.697Z,32.10
2022-12-22T03:04:38.291Z,27.40
2022-12-22T03:05:38.285Z,34.60
2022-12-22T03:06:38.267Z,36.00
2022-12-22T03:07:38.262Z,49.00
2022-12-22T03:08:38.254Z,63.10
2022-12-22T03:09:38.240Z,96.10
2022-12-22T03:10:38.228Z,56.90
2022-12-22T03:11:38.216Z,35.80
2022-12-22T03:12:38.206Z,37.00
2022-12-22T03:13:38.235Z,46.00
2022-12-22T03:14:38.181Z,34.60
2022-12-22T03:15:38.170Z,39.70
2022-12-22T03:16:38.229Z,52.50
2022-12-22T03:17:38.156Z,38.60
2022-12-22T03:18:38.153Z,83.10
2022-12-22T03:19:38.132Z,39.90
2022-12-22T03:20:38.128Z,39.00
2022-12-22T03:21:38.123Z,37.10
2022-12-22T03:22:38.225Z,46.60
2022-12-22T03:23:38.097Z,68.20
2022-12-22T03:24:38.071Z,53.30
2022-12-22T03:25:38.059Z,54.00
2022-12-22T03:26:38.058Z,49.60
2022-12-22T03:27:38.032Z,22.00
2022-12-22T03:28:38.051Z,27.40
2022-12-22T03:29:38.032Z,31.70
2022-12-22T03:30:38.005Z,36.50
2022-12-22T03:31:38.082Z,44.80
2022-12-22T03:32:37.984Z,84.70
2022-12-22T03:33:37.996Z,66.20
2022-12-22T03:34:37.966Z,58.80
2022-12-22T03:35:37.956Z,101.20
2022-12-22T03:36:37.941Z,138.70
2022-12-22T03:37:37.926Z,59.60
2022-12-22T03:38:37.931Z,43.30
2022-12-22T03:39:37.918Z,24.90
2022-12-22T03:40:37.899Z,42.90
2022-12-22T03:41:37.894Z,44.50
2022-12-22T03:42:37.878Z,124.40
2022-12-22T03:43:37.903Z,153.40
2022-12-22T03:44:37.876Z,27.10
2022-12-22T03:45:37.830Z,36.70
2022-12-22T03:46:37.846Z,45.70
2022-12-22T03:47:37.829Z,69.00
2022-12-22T03:48:37.821Z,82.50
2022-12-22T03:49:37.809Z,137.00
2022-12-22T03:50:37.786Z,83.60
2022-12-22T03:51:37.767Z,62.70
2022-12-22T03:52:37.763Z,30.70
2022-12-22T03:53:37.767Z,55.30
2022-12-22T03:54:37.733Z,40.80
2022-12-22T03:55:37.733Z,43.60
2022-12-22T03:56:37.717Z,35.80
2022-12-22T03:57:37.701Z,133.20
2022-12-22T03:58:37.717Z,144.50
2022-12-22T03:59:37.682Z,157.40
2022-12-22T04:00:37.669Z,84.70
2022-12-22T04:01:37.810Z,111.60
2022-12-22T04:02:37.766Z,81.80
2022-12-22T04:03:37.656Z,120.30
2022-12-22T04:04:37.619Z,82.00
2022-12-22T04:05:37.620Z,130.10
2022-12-22T04:06:37.608Z,47.20
2022-12-22T04:07:37.600Z,155.80
2022-12-22T04:08:37.589Z,89.40
2022-12-22T04:09:37.571Z,93.40
2022-12-22T04:10:37.560Z,113.70
2022-12-22T04:11:37.543Z,85.80
2022-12-22T04:12:37.540Z,198.60
2022-12-22T04:13:37.558Z,47.30
2022-12-22T04:14:37.521Z,77.40
2022-12-22T04:15:37.498Z,32.30
2022-12-22T04:16:37.561Z,105.50
2022-12-22T04:17:37.480Z,23.60
2022-12-22T04:18:37.490Z,213.50
2022-12-22T04:19:37.457Z,194.40
2022-12-22T04:20:37.453Z,55.80
2022-12-22T04:21:44.002Z,120.60
2022-12-22T04:22:37.432Z,81.00
2022-12-22T04:23:37.417Z,150.10
2022-12-22T04:24:37.421Z,114.60
2022-12-22T04:25:37.389Z,84.70
2022-12-22T04:26:37.407Z,164.10
2022-12-22T04:27:37.376Z,158.90
2022-12-22T04:28:37.408Z,73.30
2022-12-22T04:29:37.344Z,89.90
2022-12-22T04:30:37.330Z,150.90
2022-12-22T04:31:37.389Z,20.60
2022-12-22T04:32:37.325Z,24.50
2022-12-22T04:33:37.338Z,22.70
2022-12-22T04:34:37.334Z,38.00
2022-12-22T04:35:37.331Z,100.30
2022-12-22T04:36:37.271Z,85.20
2022-12-22T04:37:37.256Z,148.50
2022-12-22T04:38:37.265Z,102.90
2022-12-22T04:39:37.260Z,34.60
2022-12-22T04:40:37.224Z,127.60
2022-12-22T04:41:37.241Z,182.70
2022-12-22T04:42:37.233Z,49.80
2022-12-22T04:43:37.201Z,198.70
2022-12-22T04:44:37.221Z,73.60
2022-12-22T04:45:37.237Z,52.30
2022-12-22T04:46:37.155Z,122.30
2022-12-22T04:47:37.181Z,56.00
2022-12-22T04:48:37.153Z,33.70
2022-12-22T04:49:37.128Z,29.60
2022-12-22T04:50:37.139Z,41.40
2022-12-22T04:51:37.112Z,61.00
2022-12-22T04:52:37.097Z,56.70
2022-12-22T04:53:37.107Z,53.40
2022-12-22T04:54:41.158Z,118.80
2022-12-22T04:55:37.061Z,125.00
2022-12-22T04:56:37.059Z,86.70
2022-12-22T04:57:40.900Z,81.30
2022-12-22T04:58:37.046Z,89.90
2022-12-22T04:59:37.052Z,119.80
2022-12-22T05:00:37.003Z,106.60
2022-12-22T05:01:37.183Z,114.30
2022-12-22T05:02:37.156Z,106.80
2022-12-22T05:03:37.075Z,176.40
2022-12-22T05:04:37.082Z,222.00
2022-12-22T05:05:36.967Z,146.90
2022-12-22T05:06:36.952Z,71.00
2022-12-22T05:07:36.979Z,49.80
2022-12-22T05:08:36.956Z,80.90
2022-12-22T05:09:36.922Z,92.90
2022-12-22T05:10:36.947Z,102.80
2022-12-22T05:11:36.894Z,135.80
2022-12-22T05:12:36.867Z,208.10
2022-12-22T05:13:36.882Z,123.90
2022-12-22T05:14:36.872Z,49.70
2022-12-22T05:15:36.865Z,148.00
2022-12-22T05:16:36.851Z,134.90
2022-12-22T05:17:36.813Z,92.50
2022-12-22T05:18:36.796Z,225.60
2022-12-22T05:19:36.812Z,62.70
2022-12-22T05:20:36.787Z,129.70
2022-12-22T05:21:36.759Z,44.20
2022-12-22T05:22:36.803Z,88.10
2022-12-22T05:23:36.768Z,181.50
2022-12-22T05:24:36.743Z,96.70
2022-12-22T05:25:36.741Z,226.20
2022-12-22T05:26:36.715Z,144.70
2022-12-22T05:27:36.700Z,124.30
2022-12-22T05:28:36.693Z,239.50
2022-12-22T05:29:36.707Z,144.80
2022-12-22T05:30:36.697Z,101.60
2022-12-22T05:31:40.646Z,74.60
2022-12-22T05:32:36.658Z,59.40
2022-12-22T05:33:36.658Z,47.70
2022-12-22T05:34:36.633Z,42.30
2022-12-22T05:35:36.608Z,52.00
2022-12-22T05:36:36.611Z,84.80
2022-12-22T05:37:36.660Z,35.50
2022-12-22T05:38:36.644Z,96.60
2022-12-22T05:39:36.589Z,124.60
2022-12-22T05:40:36.576Z,66.30
2022-12-22T05:41:36.567Z,131.70
2022-12-22T05:42:36.575Z,84.00
2022-12-22T05:43:36.520Z,50.60
2022-12-22T05:44:36.568Z,114.50
2022-12-22T05:45:36.523Z,126.30
2022-12-22T05:46:36.617Z,61.20
2022-12-22T05:47:36.490Z,44.40
2022-12-22T05:48:39.195Z,60.40
2022-12-22T05:49:36.491Z,104.80
2022-12-22T05:50:36.438Z,42.40
2022-12-22T05:51:36.448Z,47.10
2022-12-22T05:52:36.427Z,128.80
2022-12-22T05:53:36.421Z,120.00
2022-12-22T05:54:36.416Z,53.00
2022-12-22T05:55:36.382Z,131.40
2022-12-22T05:56:36.397Z,234.80
2022-12-22T05:57:36.361Z,185.50
2022-12-22T05:58:36.357Z,53.70
2022-12-22T05:59:36.368Z,91.10
2022-12-22T06:00:36.335Z,183.90
2022-12-22T06:01:36.357Z,50.40
2022-12-22T06:02:36.397Z,70.00
2022-12-22T06:03:36.716Z,41.00
2022-12-22T06:04:36.310Z,109.30
2022-12-22T06:05:36.274Z,148.70
2022-12-22T06:06:36.265Z,140.30
2022-12-22T06:07:36.258Z,64.80
2022-12-22T06:08:36.251Z,138.70
2022-12-22T06:09:36.248Z,174.70
2022-12-22T06:10:36.221Z,94.90
2022-12-22T06:11:36.212Z,70.30
2022-12-22T06:12:36.210Z,136.70
2022-12-22T06:13:36.182Z,88.80
2022-12-22T06:14:36.201Z,64.40
2022-12-22T06:15:36.227Z,73.20
2022-12-22T06:16:36.188Z,62.90
2022-12-22T06:17:42.252Z,121.80
2022-12-22T06:18:36.203Z,37.60
2022-12-22T06:19:36.143Z,153.40
2022-12-22T06:20:36.101Z,152.10
2022-12-22T06:21:36.096Z,254.40
2022-12-22T06:22:36.099Z,109.20
2022-12-22T06:23:36.080Z,47.70
2022-12-22T06:24:36.078Z,65.50
2022-12-22T06:25:36.053Z,67.50
2022-12-22T06:26:36.049Z,57.80
2022-12-22T06:27:36.054Z,43.10
2022-12-22T06:28:36.048Z,141.80
2022-12-22T06:29:36.026Z,74.70
2022-12-22T06:30:36.001Z,65.80
2022-12-22T06:31:36.069Z,97.40
2022-12-22T06:32:36.003Z,74.10
2022-12-22T06:33:35.963Z,190.50
2022-12-22T06:34:35.964Z,101.50
2022-12-22T06:35:35.938Z,49.50
2022-12-22T06:36:35.933Z,102.80
2022-12-22T06:37:35.950Z,44.60
2022-12-22T06:38:36.744Z,74.60
2022-12-22T06:39:35.917Z,160.40
2022-12-22T06:40:35.897Z,164.10
2022-12-22T06:41:35.871Z,200.40
2022-12-22T06:42:35.873Z,157.00
2022-12-22T06:43:35.851Z,155.10
2022-12-22T06:44:35.865Z,160.50
2022-12-22T06:45:35.827Z,144.60
2022-12-22T06:46:35.870Z,78.60
2022-12-22T06:47:35.809Z,160.80
2022-12-22T06:48:35.799Z,55.30
2022-12-22T06:49:35.809Z,46.40
2022-12-22T06:50:35.790Z,100.80
2022-12-22T06:51:35.807Z,163.50
2022-12-22T06:52:35.778Z,186.00
2022-12-22T06:53:35.734Z,195.60
2022-12-22T06:54:35.780Z,59.80
2022-12-22T06:55:35.740Z,40.80
2022-12-22T06:56:35.717Z,148.50
2022-12-22T06:57:35.713Z,142.20
2022-12-22T06:58:35.679Z,73.50
2022-12-22T06:59:35.703Z,140.30
2022-12-22T07:00:35.681Z,162.10
2022-12-22T07:01:35.777Z,118.70
2022-12-22T07:02:35.969Z,77.50
2022-12-22T07:03:35.670Z,168.50
2022-12-22T07:04:35.666Z,66.60
2022-12-22T07:05:35.608Z,90.10
2022-12-22T07:06:35.603Z,212.70
2022-12-22T07:07:35.613Z,213.00
2022-12-22T07:08:35.587Z,129.30
2022-12-22T07:09:35.596Z,64.50
2022-12-22T07:10:35.567Z,117.60
2022-12-22T07:11:35.544Z,67.40
2022-12-22T07:12:35.564Z,67.20
2022-12-22T07:13:35.566Z,105.90
2022-12-22T07:14:35.580Z,96.30
2022-12-22T07:15:35.583Z,192.20
2022-12-22T07:16:35.600Z,124.30
2022-12-22T07:17:35.592Z,122.60
2022-12-22T07:18:35.485Z,108.50
2022-12-22T07:19:35.466Z,107.00
2022-12-22T07:20:35.452Z,94.20
2022-12-22T07:21:35.471Z,95.60
2022-12-22T07:22:35.443Z,76.30
2022-12-22T07:23:35.421Z,81.90
2022-12-22T07:24:35.425Z,57.10
2022-12-22T07:25:35.396Z,50.20
2022-12-22T07:26:35.380Z,186.10
2022-12-22T07:27:35.539Z,145.70
2022-12-22T07:28:35.340Z,125.80
2022-12-22T07:29:35.396Z,62.10
2022-12-22T07:30:35.343Z,72.60
2022-12-22T07:31:35.372Z,96.40
2022-12-22T07:32:35.300Z,144.80
2022-12-22T07:33:36.473Z,176.30
2022-12-22T07:34:35.303Z,85.70
2022-12-22T07:35:35.278Z,190.80
2022-12-22T07:36:35.272Z,135.30
2022-12-22T07:37:35.250Z,174.00
2022-12-22T07:38:35.258Z,115.90
2022-12-22T07:39:35.244Z,59.70
2022-12-22T07:40:39.587Z,134.30
2022-12-22T07:41:35.221Z,214.60
2022-12-22T07:42:35.196Z,151.00
2022-12-22T07:43:35.187Z,211.60
2022-12-22T07:44:35.224Z,68.40
2022-12-22T07:45:35.166Z,130.90
2022-12-22T07:46:35.270Z,151.30
2022-12-22T07:47:35.789Z,139.90
2022-12-22T07:48:35.132Z,181.40
2022-12-22T07:49:35.114Z,169.30
2022-12-22T07:50:35.132Z,113.50
2022-12-22T07:51:35.099Z,156.50
2022-12-22T07:52:35.105Z,165.30
2022-12-22T07:53:35.067Z,170.00
2022-12-22T07:54:41.100Z,168.50
2022-12-22T07:55:35.071Z,149.30
2022-12-22T07:56:35.041Z,217.00
2022-12-22T07:57:35.019Z,144.10
2022-12-22T07:58:35.016Z,171.40
2022-12-22T07:59:35.017Z,161.00
2022-12-22T08:00:35.005Z,178.20
2022-12-22T08:01:35.144Z,190.00
2022-12-22T08:02:38.871Z,174.60
2022-12-22T08:03:34.978Z,62.40
2022-12-22T08:04:34.987Z,119.50
2022-12-22T08:05:34.955Z,40.60
2022-12-22T08:06:34.974Z,46.70
2022-12-22T08:07:34.963Z,61.80
2022-12-22T08:08:34.914Z,121.30
2022-12-22T08:09:34.938Z,63.90
2022-12-22T08:10:34.907Z,113.80
2022-12-22T08:11:34.879Z,107.40
2022-12-22T08:12:34.951Z,86.50
2022-12-22T08:13:34.851Z,98.70
2022-12-22T08:14:34.857Z,76.80
2022-12-22T08:15:34.855Z,147.00
2022-12-22T08:16:34.987Z,256.40
2022-12-22T08:17:34.798Z,117.80
2022-12-22T08:18:34.804Z,171.00
2022-12-22T08:19:34.799Z,195.70
2022-12-22T08:20:34.787Z,138.20
2022-12-22T08:21:34.777Z,66.90
2022-12-22T08:22:34.745Z,161.70
2022-12-22T08:23:34.738Z,117.40
2022-12-22T08:24:34.720Z,160.40
2022-12-22T08:25:34.736Z,112.70
2022-12-22T08:26:34.693Z,157.60
2022-12-22T08:27:34.694Z,154.90
2022-12-22T08:28:35.029Z,87.20
2022-12-22T08:29:34.670Z,99.10
2022-12-22T08:30:34.685Z,85.00
2022-12-22T08:31:34.723Z,180.50
2022-12-22T08:32:34.631Z,185.00
2022-12-22T08:33:34.631Z,194.30
2022-12-22T08:34:34.613Z,220.50
2022-12-22T08:35:34.623Z,138.10
2022-12-22T08:36:34.599Z,44.80
2022-12-22T08:37:34.579Z,65.00
2022-12-22T08:38:34.687Z,49.40
2022-12-22T08:39:34.565Z,101.40
2022-12-22T08:40:34.563Z,52.50
2022-12-22T08:41:34.562Z,91.90
2022-12-22T08:42:34.527Z,170.90
2022-12-22T08:43:34.551Z,98.50
2022-12-22T08:44:34.506Z,150.80
2022-12-22T08:45:34.535Z,145.30
2022-12-22T08:46:34.612Z,141.70
2022-12-22T08:47:34.559Z,125.70
2022-12-22T08:48:34.593Z,42.10
2022-12-22T08:49:34.462Z,136.70
2022-12-22T08:50:34.444Z,98.90
2022-12-22T08:51:34.422Z,146.70
2022-12-22T08:52:34.415Z,34.00
2022-12-22T08:54:34.394Z,35.90
2022-12-22T08:55:34.416Z,78.70
2022-12-22T08:56:34.398Z,49.50
2022-12-22T08:57:34.353Z,36.30
2022-12-22T08:58:34.341Z,34.20
2022-12-22T08:59:34.322Z,38.70
2022-12-22T09:00:34.416Z,40.70
2022-12-22T09:01:34.381Z,42.90
2022-12-22T09:02:34.487Z,49.50
2022-12-22T09:03:34.417Z,98.00
2022-12-22T09:04:34.276Z,132.30
2022-12-22T09:05:34.282Z,171.90
2022-12-22T09:06:40.456Z,107.40
2022-12-22T09:07:34.268Z,43.00
2022-12-22T09:08:34.229Z,55.40
2022-12-22T09:09:34.258Z,48.50
2022-12-22T09:10:34.227Z,57.10
2022-12-22T09:11:34.193Z,55.50
2022-12-22T09:12:34.215Z,105.40
2022-12-22T09:13:34.176Z,40.40
2022-12-22T09:14:34.173Z,60.50
2022-12-22T09:15:34.185Z,145.20
2022-12-22T09:16:34.213Z,45.80
2022-12-22T09:17:34.128Z,38.40
2022-12-22T09:18:34.151Z,34.50
2022-12-22T09:19:34.111Z,38.80
2022-12-22T09:20:34.115Z,43.90
2022-12-22T09:21:34.113Z,60.00
2022-12-22T09:22:34.076Z,109.90
2022-12-22T09:23:34.060Z,71.20
2022-12-22T09:24:34.091Z,32.30
2022-12-22T09:25:34.073Z,45.20
2022-12-22T09:26:34.040Z,42.90
2022-12-22T09:27:34.034Z,84.00
2022-12-22T09:28:34.016Z,35.60
2022-12-22T09:29:34.012Z,37.80
2022-12-22T09:30:34.006Z,41.20
2022-12-22T09:31:34.126Z,39.20
2022-12-22T09:32:33.956Z,52.80
2022-12-22T09:33:33.959Z,35.30
2022-12-22T09:34:33.981Z,44.00
2022-12-22T09:35:33.946Z,46.20
2022-12-22T09:36:33.923Z,50.30
2022-12-22T09:37:33.917Z,41.90
2022-12-22T09:38:33.931Z,49.70
2022-12-22T09:39:33.889Z,42.70
2022-12-22T09:40:33.891Z,46.90
2022-12-22T09:41:33.870Z,48.10
2022-12-22T09:42:33.863Z,66.50
2022-12-22T09:43:33.868Z,65.60
2022-12-22T09:44:33.831Z,58.30
2022-12-22T09:45:33.966Z,64.70
2022-12-22T09:46:33.811Z,48.40
2022-12-22T09:47:33.816Z,57.80
2022-12-22T09:48:33.804Z,40.50
2022-12-22T09:49:33.775Z,40.30
2022-12-22T09:50:33.793Z,48.10
2022-12-22T09:51:33.760Z,53.60
2022-12-22T09:52:33.742Z,66.90
2022-12-22T09:53:33.738Z,54.40
2022-12-22T09:54:33.727Z,50.20
2022-12-22T09:55:33.723Z,44.70
2022-12-22T09:56:33.703Z,50.60
2022-12-22T09:57:33.695Z,40.00
2022-12-22T09:58:33.677Z,49.00
2022-12-22T09:59:33.672Z,53.20
2022-12-22T10:00:33.673Z,60.60
2022-12-22T10:01:33.803Z,56.80
2022-12-22T10:02:33.666Z,47.60
2022-12-22T10:03:33.739Z,48.40
2022-12-22T10:04:33.608Z,57.90
2022-12-22T10:05:33.685Z,53.50
2022-12-22T10:06:33.592Z,61.80
2022-12-22T10:07:33.590Z,52.60
2022-12-22T10:08:33.559Z,52.80
2022-12-22T10:09:49.519Z,54.40
2022-12-22T10:10:33.564Z,45.50
2022-12-22T10:11:33.544Z,49.60
2022-12-22T10:12:33.540Z,53.40
2022-12-22T10:13:33.519Z,51.70
2022-12-22T10:14:33.493Z,49.40
2022-12-22T10:15:33.506Z,55.50
2022-12-22T10:16:33.472Z,54.30
2022-12-22T10:17:33.499Z,47.20
2022-12-22T10:18:33.469Z,49.60
2022-12-22T10:19:33.446Z,56.40
2022-12-22T10:20:33.460Z,53.20
2022-12-22T10:21:46.334Z,52.50
2022-12-22T10:22:33.431Z,64.50
2022-12-22T10:23:33.395Z,43.00
2022-12-22T10:24:33.388Z,45.10
2022-12-22T10:25:52.229Z,53.70
2022-12-22T10:26:33.424Z,54.10
2022-12-22T10:27:33.364Z,49.00
2022-12-22T10:28:33.350Z,51.50
2022-12-22T10:29:33.322Z,53.90
2022-12-22T10:30:33.326Z,55.30
2022-12-22T10:31:33.977Z,47.60
2022-12-22T10:32:33.289Z,52.40
2022-12-22T10:33:33.311Z,45.40
2022-12-22T10:34:33.284Z,43.60
2022-12-22T10:35:33.282Z,44.10
2022-12-22T10:36:33.254Z,55.40
2022-12-22T10:37:33.245Z,48.40
2022-12-22T10:38:33.236Z,44.60
2022-12-22T10:39:33.248Z,43.00
2022-12-22T10:40:33.237Z,40.50
2022-12-22T10:41:33.204Z,41.30
2022-12-22T10:42:33.184Z,39.20
2022-12-22T10:43:33.209Z,40.80
2022-12-22T10:44:33.167Z,42.60
2022-12-22T10:45:33.342Z,38.70
2022-12-22T10:46:33.272Z,42.30
2022-12-22T10:47:33.143Z,43.50
2022-12-22T10:48:33.126Z,46.10
2022-12-22T10:49:33.108Z,44.30
2022-12-22T10:50:33.114Z,38.10
2022-12-22T10:51:33.099Z,41.70
2022-12-22T10:52:33.190Z,39.90
2022-12-22T10:53:33.072Z,38.30
2022-12-22T10:54:33.075Z,38.80
2022-12-22T10:55:33.052Z,37.70
2022-12-22T10:56:33.061Z,38.70
2022-12-22T10:57:33.053Z,36.80
2022-12-22T10:58:33.015Z,42.50
2022-12-22T10:59:33.018Z,37.80
2022-12-22T11:00:33.060Z,40.30
2022-12-22T11:01:33.148Z,38.00
2022-12-22T11:02:33.319Z,37.90
2022-12-22T11:03:33.201Z,37.30
2022-12-22T11:04:32.977Z,39.00
2022-12-22T11:05:32.962Z,33.80
2022-12-22T11:06:32.952Z,36.00
2022-12-22T11:07:32.923Z,36.60
2022-12-22T11:08:32.916Z,38.20
2022-12-22T11:09:34.596Z,38.00
2022-12-22T11:10:32.938Z,37.20
2022-12-22T11:11:32.860Z,39.10
2022-12-22T11:12:32.909Z,39.40
2022-12-22T11:13:32.892Z,32.80
2022-12-22T11:14:32.839Z,37.30
2022-12-22T11:15:32.844Z,35.70
2022-12-22T11:16:32.863Z,35.60
2022-12-22T11:17:32.818Z,40.50
2022-12-22T11:18:32.799Z,35.30
2022-12-22T11:19:32.785Z,30.70
2022-12-22T11:20:32.794Z,33.20
2022-12-22T11:21:32.757Z,37.70
2022-12-22T11:22:32.777Z,36.20
2022-12-22T11:23:32.781Z,34.60
2022-12-22T11:24:32.736Z,37.80
2022-12-22T11:25:32.739Z,32.70
2022-12-22T11:26:32.720Z,38.00
2022-12-22T11:27:32.706Z,36.10
2022-12-22T11:28:32.682Z,38.10
2022-12-22T11:29:32.677Z,43.40
2022-12-22T11:30:32.831Z,35.30
2022-12-22T11:31:32.755Z,36.40
2022-12-22T11:32:32.657Z,34.10
2022-12-22T11:33:32.663Z,40.00
2022-12-22T11:34:32.612Z,38.80
2022-12-22T11:35:32.650Z,32.20
2022-12-22T11:36:32.623Z,30.00
2022-12-22T11:37:32.623Z,32.00
2022-12-22T11:38:32.602Z,28.00
2022-12-22T11:39:32.583Z,32.70
2022-12-22T11:40:32.593Z,32.80
2022-12-22T11:41:32.543Z,32.70
2022-12-22T11:42:32.531Z,52.40
2022-12-22T11:43:32.572Z,59.90
2022-12-22T11:44:32.754Z,58.80
2022-12-22T11:45:35.253Z,40.00
2022-12-22T11:46:32.553Z,62.20
2022-12-22T11:47:32.479Z,62.40
2022-12-22T11:48:32.457Z,47.80
2022-12-22T11:49:32.520Z,29.30
2022-12-22T11:51:02.180Z,31.90
2022-12-22T11:51:32.450Z,29.00
2022-12-22T11:52:32.418Z,29.70
2022-12-22T11:53:32.409Z,28.70
2022-12-22T11:54:32.392Z,31.00
2022-12-22T11:55:32.435Z,35.60
2022-12-22T11:56:32.369Z,32.50
2022-12-22T11:57:32.361Z,35.60
2022-12-22T11:58:32.403Z,30.00
2022-12-22T11:59:32.411Z,31.50
2022-12-22T12:00:56.110Z,30.80
2022-12-22T12:01:32.444Z,32.80
2022-12-22T12:02:32.497Z,29.50
2022-12-22T12:03:32.472Z,29.40
2022-12-22T12:04:32.354Z,28.00
2022-12-22T12:05:32.300Z,33.70
2022-12-22T12:06:32.287Z,35.90
2022-12-22T12:07:32.281Z,31.90
2022-12-22T12:08:32.248Z,35.40
2022-12-22T12:09:32.235Z,31.00
2022-12-22T12:10:32.236Z,41.30
2022-12-22T12:11:32.210Z,32.20
2022-12-22T12:12:32.214Z,33.60
2022-12-22T12:13:37.111Z,32.80
2022-12-22T12:14:32.176Z,33.00
2022-12-22T12:15:32.211Z,68.90
2022-12-22T12:16:32.204Z,38.00
2022-12-22T12:17:32.149Z,33.10
2022-12-22T12:18:32.911Z,31.90
2022-12-22T12:19:32.139Z,30.80
2022-12-22T12:20:32.144Z,31.40
2022-12-22T12:21:32.124Z,31.20
2022-12-22T12:22:32.098Z,30.60
2022-12-22T12:23:32.083Z,29.40
2022-12-22T12:24:32.076Z,33.50
2022-12-22T12:25:32.064Z,29.50
2022-12-22T12:26:32.065Z,29.80
2022-12-22T12:27:32.033Z,35.00
2022-12-22T12:28:32.029Z,29.20
2022-12-22T12:29:32.002Z,39.40
2022-12-22T12:30:39.726Z,38.30
2022-12-22T12:31:32.055Z,27.90
2022-12-22T12:32:31.975Z,27.80
2022-12-22T12:33:31.970Z,26.70
2022-12-22T12:34:31.962Z,27.30
2022-12-22T12:35:31.945Z,31.80
2022-12-22T12:36:31.953Z,30.50
2022-12-22T12:37:31.921Z,29.80
2022-12-22T12:39:06.341Z,32.10
2022-12-22T12:39:31.921Z,35.60
2022-12-22T12:40:31.905Z,34.20
2022-12-22T12:41:31.907Z,69.20
2022-12-22T12:42:31.880Z,34.90
2022-12-22T12:43:31.859Z,40.50
2022-12-22T12:44:31.861Z,25.60
2022-12-22T12:45:31.858Z,57.50
2022-12-22T12:46:31.863Z,44.60
2022-12-22T12:47:31.847Z,67.60